sensor_id;sensor_type;location;lat;lon;timestamp;P1;durP1;ratioP1;P2;durP2;ratioP2
7833;SDS011;3962;42.696;23.354;2023-05-10T00:02:39;8.17;;;6.37;;
7833;SDS011;3962;42.696;23.354;2023-05-10T00:05:12;9.13;;;7.13;;
7833;SDS011;3962;42.696;23.354;2023-05-10T00:07:46;10.53;;;8.27;;
7833;SDS011;3962;42.696;23.354;2023-05-10T00:12:43;14.07;;;8.83;;
7833;SDS011;3962;42.696;23.354;2023-05-10T00:15:10;11.70;;;9.27;;
7833;SDS011;3962;42.696;23.354;2023-05-10T00:17:37;14.73;;;10.33;;
7833;SDS011;3962;42.696;23.354;2023-05-10T00:20:08;12.80;;;10.23;;
7833;SDS011;3962;42.696;23.354;2023-05-10T00:25:10;14.07;;;10.10;;
7833;SDS011;3962;42.696;23.354;2023-05-10T00:27:39;13.83;;;10.07;;
7833;SDS011;3962;42.696;23.354;2023-05-10T00:33:00;12.97;;;9.57;;
7833;SDS011;3962;42.696;23.354;2023-05-10T00:38:00;13.23;;;10.17;;
7833;SDS011;3962;42.696;23.354;2023-05-10T00:40:28;12.20;;;9.80;;
7833;SDS011;3962;42.696;23.354;2023-05-10T00:42:55;13.83;;;10.20;;
7833;SDS011;3962;42.696;23.354;2023-05-10T00:45:23;15.80;;;10.57;;
7833;SDS011;3962;42.696;23.354;2023-05-10T00:47:50;14.23;;;10.23;;
7833;SDS011;3962;42.696;23.354;2023-05-10T00:50:20;15.03;;;10.87;;
7833;SDS011;3962;42.696;23.354;2023-05-10T00:52:49;14.10;;;10.47;;
7833;SDS011;3962;42.696;23.354;2023-05-10T00:55:16;13.90;;;10.90;;
7833;SDS011;3962;42.696;23.354;2023-05-10T00:57:45;13.83;;;10.17;;
7833;SDS011;3962;42.696;23.354;2023-05-10T01:00:15;12.63;;;10.17;;
7833;SDS011;3962;42.696;23.354;2023-05-10T01:02:44;13.57;;;10.47;;
7833;SDS011;3962;42.696;23.354;2023-05-10T01:05:11;13.73;;;10.47;;
7833;SDS011;3962;42.696;23.354;2023-05-10T01:07:42;14.00;;;10.57;;
7833;SDS011;3962;42.696;23.354;2023-05-10T01:10:11;14.57;;;10.93;;
7833;SDS011;3962;42.696;23.354;2023-05-10T01:12:38;14.90;;;10.27;;
7833;SDS011;3962;42.696;23.354;2023-05-10T01:15:07;13.37;;;10.53;;
7833;SDS011;3962;42.696;23.354;2023-05-10T01:20:09;14.07;;;11.07;;
7833;SDS011;3962;42.696;23.354;2023-05-10T01:22:59;12.77;;;9.67;;
7833;SDS011;3962;42.696;23.354;2023-05-10T01:25:55;10.80;;;9.33;;
7833;SDS011;3962;42.696;23.354;2023-05-10T01:28:50;12.77;;;9.40;;
7833;SDS011;3962;42.696;23.354;2023-05-10T01:31:39;11.83;;;9.13;;
7833;SDS011;3962;42.696;23.354;2023-05-10T01:34:27;10.67;;;9.57;;
7833;SDS011;3962;42.696;23.354;2023-05-10T01:37:02;11.07;;;9.10;;
7833;SDS011;3962;42.696;23.354;2023-05-10T01:39:32;10.73;;;9.10;;
7833;SDS011;3962;42.696;23.354;2023-05-10T01:44:39;11.17;;;7.63;;
7833;SDS011;3962;42.696;23.354;2023-05-10T01:47:15;9.37;;;7.30;;
7833;SDS011;3962;42.696;23.354;2023-05-10T01:49:47;8.90;;;7.63;;
7833;SDS011;3962;42.696;23.354;2023-05-10T01:54:53;8.00;;;7.03;;
7833;SDS011;3962;42.696;23.354;2023-05-10T02:00:00;8.40;;;7.50;;
7833;SDS011;3962;42.696;23.354;2023-05-10T02:02:30;8.00;;;7.03;;
7833;SDS011;3962;42.696;23.354;2023-05-10T02:05:02;7.00;;;5.80;;
7833;SDS011;3962;42.696;23.354;2023-05-10T02:07:30;7.73;;;6.80;;
7833;SDS011;3962;42.696;23.354;2023-05-10T02:09:58;10.27;;;7.40;;
7833;SDS011;3962;42.696;23.354;2023-05-10T02:12:26;7.40;;;6.70;;
7833;SDS011;3962;42.696;23.354;2023-05-10T02:14:57;8.33;;;6.90;;
7833;SDS011;3962;42.696;23.354;2023-05-10T02:17:32;11.87;;;6.97;;
7833;SDS011;3962;42.696;23.354;2023-05-10T02:20:01;9.00;;;7.03;;
7833;SDS011;3962;42.696;23.354;2023-05-10T02:22:41;7.47;;;6.50;;
7833;SDS011;3962;42.696;23.354;2023-05-10T02:25:11;7.80;;;6.50;;
7833;SDS011;3962;42.696;23.354;2023-05-10T02:30:12;7.20;;;6.50;;
7833;SDS011;3962;42.696;23.354;2023-05-10T02:32:44;7.47;;;6.67;;
7833;SDS011;3962;42.696;23.354;2023-05-10T02:35:14;7.60;;;6.40;;
7833;SDS011;3962;42.696;23.354;2023-05-10T02:37:42;7.77;;;6.37;;
7833;SDS011;3962;42.696;23.354;2023-05-10T02:40:17;9.23;;;6.97;;
7833;SDS011;3962;42.696;23.354;2023-05-10T02:42:48;8.00;;;6.30;;
7833;SDS011;3962;42.696;23.354;2023-05-10T02:47:56;8.17;;;5.33;;
7833;SDS011;3962;42.696;23.354;2023-05-10T02:50:34;10.17;;;6.47;;
7833;SDS011;3962;42.696;23.354;2023-05-10T02:53:15;8.10;;;6.37;;
7833;SDS011;3962;42.696;23.354;2023-05-10T02:55:51;9.23;;;5.93;;
7833;SDS011;3962;42.696;23.354;2023-05-10T02:58:18;11.73;;;5.97;;
7833;SDS011;3962;42.696;23.354;2023-05-10T03:03:19;8.23;;;6.03;;
7833;SDS011;3962;42.696;23.354;2023-05-10T03:06:01;7.60;;;5.20;;
7833;SDS011;3962;42.696;23.354;2023-05-10T03:08:28;8.40;;;6.10;;
7833;SDS011;3962;42.696;23.354;2023-05-10T03:13:36;9.00;;;5.70;;
7833;SDS011;3962;42.696;23.354;2023-05-10T03:16:29;7.77;;;6.27;;
7833;SDS011;3962;42.696;23.354;2023-05-10T03:19:06;10.30;;;5.83;;
7833;SDS011;3962;42.696;23.354;2023-05-10T03:21:41;8.87;;;6.70;;
7833;SDS011;3962;42.696;23.354;2023-05-10T03:24:13;8.67;;;6.47;;
7833;SDS011;3962;42.696;23.354;2023-05-10T03:26:43;8.03;;;6.30;;
7833;SDS011;3962;42.696;23.354;2023-05-10T03:29:18;6.37;;;5.63;;
7833;SDS011;3962;42.696;23.354;2023-05-10T03:31:46;8.20;;;6.67;;
7833;SDS011;3962;42.696;23.354;2023-05-10T03:36:56;9.93;;;7.23;;
7833;SDS011;3962;42.696;23.354;2023-05-10T03:39:23;12.93;;;7.27;;
7833;SDS011;3962;42.696;23.354;2023-05-10T03:41:52;8.77;;;6.37;;
7833;SDS011;3962;42.696;23.354;2023-05-10T03:44:25;8.60;;;6.97;;
7833;SDS011;3962;42.696;23.354;2023-05-10T03:46:51;10.17;;;6.67;;
7833;SDS011;3962;42.696;23.354;2023-05-10T03:49:28;8.97;;;6.13;;
7833;SDS011;3962;42.696;23.354;2023-05-10T03:55:02;8.67;;;7.00;;
7833;SDS011;3962;42.696;23.354;2023-05-10T03:57:29;13.47;;;7.97;;
7833;SDS011;3962;42.696;23.354;2023-05-10T03:59:57;9.07;;;6.87;;
7833;SDS011;3962;42.696;23.354;2023-05-10T04:02:24;9.80;;;6.90;;
7833;SDS011;3962;42.696;23.354;2023-05-10T04:04:52;8.60;;;6.87;;
7833;SDS011;3962;42.696;23.354;2023-05-10T04:07:19;8.60;;;6.53;;
7833;SDS011;3962;42.696;23.354;2023-05-10T04:09:46;9.87;;;6.07;;
7833;SDS011;3962;42.696;23.354;2023-05-10T04:12:13;12.23;;;6.20;;
7833;SDS011;3962;42.696;23.354;2023-05-10T04:14:40;9.90;;;7.10;;
7833;SDS011;3962;42.696;23.354;2023-05-10T04:17:06;8.67;;;6.27;;
7833;SDS011;3962;42.696;23.354;2023-05-10T04:19:37;11.83;;;7.10;;
7833;SDS011;3962;42.696;23.354;2023-05-10T04:22:08;7.80;;;5.97;;
7833;SDS011;3962;42.696;23.354;2023-05-10T04:24:37;8.83;;;6.13;;
7833;SDS011;3962;42.696;23.354;2023-05-10T04:27:04;7.30;;;6.33;;
7833;SDS011;3962;42.696;23.354;2023-05-10T04:29:31;8.17;;;6.33;;
7833;SDS011;3962;42.696;23.354;2023-05-10T04:31:57;7.63;;;6.23;;
7833;SDS011;3962;42.696;23.354;2023-05-10T04:34:24;7.90;;;5.80;;
7833;SDS011;3962;42.696;23.354;2023-05-10T04:39:22;6.27;;;5.57;;
7833;SDS011;3962;42.696;23.354;2023-05-10T04:41:49;11.37;;;6.17;;
7833;SDS011;3962;42.696;23.354;2023-05-10T04:44:16;8.13;;;6.37;;
7833;SDS011;3962;42.696;23.354;2023-05-10T04:46:49;12.20;;;6.20;;
7833;SDS011;3962;42.696;23.354;2023-05-10T04:51:50;10.00;;;5.87;;
7833;SDS011;3962;42.696;23.354;2023-05-10T04:54:16;7.50;;;6.67;;
7833;SDS011;3962;42.696;23.354;2023-05-10T04:56:45;7.37;;;5.80;;
7833;SDS011;3962;42.696;23.354;2023-05-10T04:59:12;9.47;;;7.47;;
7833;SDS011;3962;42.696;23.354;2023-05-10T05:01:39;16.07;;;10.23;;
7833;SDS011;3962;42.696;23.354;2023-05-10T05:04:06;10.13;;;7.57;;
7833;SDS011;3962;42.696;23.354;2023-05-10T05:06:33;10.97;;;7.17;;
7833;SDS011;3962;42.696;23.354;2023-05-10T05:08:59;13.23;;;8.37;;
7833;SDS011;3962;42.696;23.354;2023-05-10T05:11:28;10.40;;;7.37;;
7833;SDS011;3962;42.696;23.354;2023-05-10T05:14:08;10.50;;;7.53;;
7833;SDS011;3962;42.696;23.354;2023-05-10T05:16:36;9.83;;;7.37;;
7833;SDS011;3962;42.696;23.354;2023-05-10T05:19:06;10.13;;;7.10;;
7833;SDS011;3962;42.696;23.354;2023-05-10T05:21:32;8.57;;;6.97;;
7833;SDS011;3962;42.696;23.354;2023-05-10T05:24:04;10.33;;;7.40;;
7833;SDS011;3962;42.696;23.354;2023-05-10T05:26:31;10.03;;;6.47;;
7833;SDS011;3962;42.696;23.354;2023-05-10T05:29:00;11.37;;;8.73;;
7833;SDS011;3962;42.696;23.354;2023-05-10T05:31:27;11.17;;;7.73;;
7833;SDS011;3962;42.696;23.354;2023-05-10T05:33:53;11.13;;;7.30;;
7833;SDS011;3962;42.696;23.354;2023-05-10T05:36:20;10.60;;;7.77;;
7833;SDS011;3962;42.696;23.354;2023-05-10T05:38:48;10.07;;;7.87;;
7833;SDS011;3962;42.696;23.354;2023-05-10T05:41:17;11.70;;;7.97;;
7833;SDS011;3962;42.696;23.354;2023-05-10T05:43:44;14.53;;;8.07;;
7833;SDS011;3962;42.696;23.354;2023-05-10T05:46:18;9.70;;;7.83;;
7833;SDS011;3962;42.696;23.354;2023-05-10T05:48:45;14.73;;;8.50;;
7833;SDS011;3962;42.696;23.354;2023-05-10T05:51:12;11.67;;;8.30;;
7833;SDS011;3962;42.696;23.354;2023-05-10T05:53:39;11.97;;;7.30;;
7833;SDS011;3962;42.696;23.354;2023-05-10T05:56:06;11.40;;;7.73;;
7833;SDS011;3962;42.696;23.354;2023-05-10T05:58:33;9.87;;;7.87;;
7833;SDS011;3962;42.696;23.354;2023-05-10T06:01:00;16.53;;;10.00;;
7833;SDS011;3962;42.696;23.354;2023-05-10T06:03:28;11.10;;;7.50;;
7833;SDS011;3962;42.696;23.354;2023-05-10T06:05:55;11.03;;;8.10;;
7833;SDS011;3962;42.696;23.354;2023-05-10T06:08:21;10.60;;;8.27;;
7833;SDS011;3962;42.696;23.354;2023-05-10T06:10:51;9.90;;;7.13;;
7833;SDS011;3962;42.696;23.354;2023-05-10T06:13:17;11.87;;;7.30;;
7833;SDS011;3962;42.696;23.354;2023-05-10T06:18:16;13.07;;;7.53;;
7833;SDS011;3962;42.696;23.354;2023-05-10T06:20:44;9.10;;;7.43;;
7833;SDS011;3962;42.696;23.354;2023-05-10T06:23:11;9.53;;;7.33;;
7833;SDS011;3962;42.696;23.354;2023-05-10T06:25:38;14.03;;;8.73;;
7833;SDS011;3962;42.696;23.354;2023-05-10T06:28:05;12.17;;;8.37;;
7833;SDS011;3962;42.696;23.354;2023-05-10T06:30:32;9.37;;;7.33;;
7833;SDS011;3962;42.696;23.354;2023-05-10T06:32:59;11.07;;;7.53;;
7833;SDS011;3962;42.696;23.354;2023-05-10T06:35:26;9.00;;;6.73;;
7833;SDS011;3962;42.696;23.354;2023-05-10T06:37:54;11.20;;;7.80;;
7833;SDS011;3962;42.696;23.354;2023-05-10T06:40:21;10.03;;;7.83;;
7833;SDS011;3962;42.696;23.354;2023-05-10T06:42:48;15.67;;;8.13;;
7833;SDS011;3962;42.696;23.354;2023-05-10T06:45:15;10.30;;;8.10;;
7833;SDS011;3962;42.696;23.354;2023-05-10T06:47:42;13.00;;;9.10;;
7833;SDS011;3962;42.696;23.354;2023-05-10T06:50:09;10.90;;;8.57;;
7833;SDS011;3962;42.696;23.354;2023-05-10T06:52:37;10.10;;;7.20;;
7833;SDS011;3962;42.696;23.354;2023-05-10T06:55:06;13.90;;;9.23;;
7833;SDS011;3962;42.696;23.354;2023-05-10T06:57:33;11.20;;;6.83;;
7833;SDS011;3962;42.696;23.354;2023-05-10T07:00:01;11.10;;;7.80;;
7833;SDS011;3962;42.696;23.354;2023-05-10T07:02:30;14.10;;;7.30;;
7833;SDS011;3962;42.696;23.354;2023-05-10T07:04:57;10.67;;;7.10;;
7833;SDS011;3962;42.696;23.354;2023-05-10T07:07:24;11.57;;;6.80;;
7833;SDS011;3962;42.696;23.354;2023-05-10T07:09:50;15.23;;;7.70;;
7833;SDS011;3962;42.696;23.354;2023-05-10T07:12:19;11.77;;;7.60;;
7833;SDS011;3962;42.696;23.354;2023-05-10T07:14:46;11.03;;;7.47;;
7833;SDS011;3962;42.696;23.354;2023-05-10T07:17:12;12.77;;;7.30;;
7833;SDS011;3962;42.696;23.354;2023-05-10T07:19:40;8.20;;;6.73;;
7833;SDS011;3962;42.696;23.354;2023-05-10T07:22:10;14.23;;;7.50;;
7833;SDS011;3962;42.696;23.354;2023-05-10T07:24:36;12.00;;;6.93;;
7833;SDS011;3962;42.696;23.354;2023-05-10T07:27:03;10.93;;;7.80;;
7833;SDS011;3962;42.696;23.354;2023-05-10T07:29:32;12.50;;;7.33;;
7833;SDS011;3962;42.696;23.354;2023-05-10T07:32:01;11.00;;;6.80;;
7833;SDS011;3962;42.696;23.354;2023-05-10T07:34:28;12.83;;;8.53;;
7833;SDS011;3962;42.696;23.354;2023-05-10T07:36:57;20.17;;;7.97;;
7833;SDS011;3962;42.696;23.354;2023-05-10T07:39:25;19.53;;;7.67;;
7833;SDS011;3962;42.696;23.354;2023-05-10T07:41:52;9.20;;;6.50;;
7833;SDS011;3962;42.696;23.354;2023-05-10T07:44:19;10.07;;;7.07;;
7833;SDS011;3962;42.696;23.354;2023-05-10T07:46:47;9.47;;;7.17;;
7833;SDS011;3962;42.696;23.354;2023-05-10T07:49:14;12.33;;;8.43;;
7833;SDS011;3962;42.696;23.354;2023-05-10T07:51:41;13.03;;;7.70;;
7833;SDS011;3962;42.696;23.354;2023-05-10T07:54:08;10.83;;;7.47;;
7833;SDS011;3962;42.696;23.354;2023-05-10T07:56:35;14.53;;;8.83;;
7833;SDS011;3962;42.696;23.354;2023-05-10T07:59:02;11.60;;;8.00;;
7833;SDS011;3962;42.696;23.354;2023-05-10T08:01:31;11.53;;;8.03;;
7833;SDS011;3962;42.696;23.354;2023-05-10T08:04:02;17.23;;;8.43;;
7833;SDS011;3962;42.696;23.354;2023-05-10T08:06:37;10.93;;;7.60;;
7833;SDS011;3962;42.696;23.354;2023-05-10T08:09:04;17.40;;;8.70;;
7833;SDS011;3962;42.696;23.354;2023-05-10T08:11:31;8.67;;;7.77;;
7833;SDS011;3962;42.696;23.354;2023-05-10T08:13:58;12.93;;;8.40;;
7833;SDS011;3962;42.696;23.354;2023-05-10T08:16:24;10.50;;;7.53;;
7833;SDS011;3962;42.696;23.354;2023-05-10T08:18:51;14.37;;;7.30;;
7833;SDS011;3962;42.696;23.354;2023-05-10T08:21:21;16.37;;;9.33;;
7833;SDS011;3962;42.696;23.354;2023-05-10T08:23:48;11.20;;;7.50;;
7833;SDS011;3962;42.696;23.354;2023-05-10T08:26:15;13.27;;;7.90;;
7833;SDS011;3962;42.696;23.354;2023-05-10T08:28:42;11.97;;;9.40;;
7833;SDS011;3962;42.696;23.354;2023-05-10T08:31:09;9.90;;;7.97;;
7833;SDS011;3962;42.696;23.354;2023-05-10T08:33:40;11.43;;;8.17;;
7833;SDS011;3962;42.696;23.354;2023-05-10T08:36:06;9.47;;;7.27;;
7833;SDS011;3962;42.696;23.354;2023-05-10T08:38:37;10.23;;;7.07;;
7833;SDS011;3962;42.696;23.354;2023-05-10T08:41:04;12.17;;;8.60;;
7833;SDS011;3962;42.696;23.354;2023-05-10T08:43:33;11.87;;;8.80;;
7833;SDS011;3962;42.696;23.354;2023-05-10T08:46:02;12.70;;;8.70;;
7833;SDS011;3962;42.696;23.354;2023-05-10T08:48:31;9.43;;;7.63;;
7833;SDS011;3962;42.696;23.354;2023-05-10T08:51:00;13.10;;;8.63;;
7833;SDS011;3962;42.696;23.354;2023-05-10T08:53:29;12.00;;;8.03;;
7833;SDS011;3962;42.696;23.354;2023-05-10T08:56:00;10.40;;;7.60;;
7833;SDS011;3962;42.696;23.354;2023-05-10T08:58:28;11.57;;;8.63;;
7833;SDS011;3962;42.696;23.354;2023-05-10T09:00:55;11.57;;;7.60;;
7833;SDS011;3962;42.696;23.354;2023-05-10T09:03:24;10.77;;;8.90;;
7833;SDS011;3962;42.696;23.354;2023-05-10T09:05:51;13.17;;;9.57;;
7833;SDS011;3962;42.696;23.354;2023-05-10T09:08:18;11.77;;;8.50;;
7833;SDS011;3962;42.696;23.354;2023-05-10T09:10:46;13.93;;;9.40;;
7833;SDS011;3962;42.696;23.354;2023-05-10T09:13:16;11.83;;;8.20;;
7833;SDS011;3962;42.696;23.354;2023-05-10T09:15:44;10.70;;;8.20;;
7833;SDS011;3962;42.696;23.354;2023-05-10T09:18:12;14.07;;;8.70;;
7833;SDS011;3962;42.696;23.354;2023-05-10T09:20:39;12.70;;;8.73;;
7833;SDS011;3962;42.696;23.354;2023-05-10T09:23:07;11.83;;;8.37;;
7833;SDS011;3962;42.696;23.354;2023-05-10T09:25:34;14.03;;;10.03;;
7833;SDS011;3962;42.696;23.354;2023-05-10T09:28:05;12.63;;;8.80;;
7833;SDS011;3962;42.696;23.354;2023-05-10T09:30:35;15.70;;;9.40;;
7833;SDS011;3962;42.696;23.354;2023-05-10T09:33:03;21.17;;;9.47;;
7833;SDS011;3962;42.696;23.354;2023-05-10T09:35:30;12.20;;;9.77;;
7833;SDS011;3962;42.696;23.354;2023-05-10T09:37:59;17.17;;;9.60;;
7833;SDS011;3962;42.696;23.354;2023-05-10T09:40:29;19.23;;;9.73;;
7833;SDS011;3962;42.696;23.354;2023-05-10T09:42:57;10.00;;;8.03;;
7833;SDS011;3962;42.696;23.354;2023-05-10T09:45:26;12.97;;;8.97;;
7833;SDS011;3962;42.696;23.354;2023-05-10T09:47:55;10.70;;;8.87;;
7833;SDS011;3962;42.696;23.354;2023-05-10T09:50:22;14.23;;;7.47;;
7833;SDS011;3962;42.696;23.354;2023-05-10T09:52:50;14.83;;;8.73;;
7833;SDS011;3962;42.696;23.354;2023-05-10T09:55:37;11.70;;;9.27;;
7833;SDS011;3962;42.696;23.354;2023-05-10T09:58:07;13.47;;;8.47;;
7833;SDS011;3962;42.696;23.354;2023-05-10T10:00:36;12.73;;;8.00;;
7833;SDS011;3962;42.696;23.354;2023-05-10T10:03:05;13.13;;;9.03;;
7833;SDS011;3962;42.696;23.354;2023-05-10T10:05:33;12.97;;;8.53;;
7833;SDS011;3962;42.696;23.354;2023-05-10T10:08:02;10.43;;;7.13;;
7833;SDS011;3962;42.696;23.354;2023-05-10T10:10:31;10.80;;;6.80;;
7833;SDS011;3962;42.696;23.354;2023-05-10T10:12:59;10.23;;;7.60;;
7833;SDS011;3962;42.696;23.354;2023-05-10T10:15:26;12.33;;;8.23;;
7833;SDS011;3962;42.696;23.354;2023-05-10T10:17:54;12.93;;;6.90;;
7833;SDS011;3962;42.696;23.354;2023-05-10T10:20:23;8.33;;;6.60;;
7833;SDS011;3962;42.696;23.354;2023-05-10T10:22:50;10.80;;;7.97;;
7833;SDS011;3962;42.696;23.354;2023-05-10T10:25:22;11.53;;;7.83;;
7833;SDS011;3962;42.696;23.354;2023-05-10T10:27:56;14.43;;;7.13;;
7833;SDS011;3962;42.696;23.354;2023-05-10T10:30:35;14.00;;;7.47;;
7833;SDS011;3962;42.696;23.354;2023-05-10T10:33:13;10.87;;;7.17;;
7833;SDS011;3962;42.696;23.354;2023-05-10T10:35:57;7.60;;;6.03;;
7833;SDS011;3962;42.696;23.354;2023-05-10T10:38:25;11.10;;;6.57;;
7833;SDS011;3962;42.696;23.354;2023-05-10T10:41:02;8.30;;;6.60;;
7833;SDS011;3962;42.696;23.354;2023-05-10T10:43:34;8.73;;;6.40;;
7833;SDS011;3962;42.696;23.354;2023-05-10T10:46:10;12.43;;;7.10;;
7833;SDS011;3962;42.696;23.354;2023-05-10T10:48:39;9.20;;;6.50;;
7833;SDS011;3962;42.696;23.354;2023-05-10T10:51:11;13.07;;;6.57;;
7833;SDS011;3962;42.696;23.354;2023-05-10T10:53:40;8.87;;;7.30;;
7833;SDS011;3962;42.696;23.354;2023-05-10T10:56:07;7.63;;;6.27;;
7833;SDS011;3962;42.696;23.354;2023-05-10T10:58:36;10.97;;;7.33;;
7833;SDS011;3962;42.696;23.354;2023-05-10T11:01:12;10.30;;;7.53;;
7833;SDS011;3962;42.696;23.354;2023-05-10T11:03:40;8.97;;;6.63;;
7833;SDS011;3962;42.696;23.354;2023-05-10T11:06:12;10.73;;;7.07;;
7833;SDS011;3962;42.696;23.354;2023-05-10T11:08:41;12.30;;;7.13;;
7833;SDS011;3962;42.696;23.354;2023-05-10T11:11:09;9.97;;;7.33;;
7833;SDS011;3962;42.696;23.354;2023-05-10T11:13:40;9.77;;;6.80;;
7833;SDS011;3962;42.696;23.354;2023-05-10T11:16:12;10.73;;;6.87;;
7833;SDS011;3962;42.696;23.354;2023-05-10T11:18:51;9.03;;;7.13;;
7833;SDS011;3962;42.696;23.354;2023-05-10T11:21:20;8.87;;;7.27;;
7833;SDS011;3962;42.696;23.354;2023-05-10T11:23:48;11.17;;;7.23;;
7833;SDS011;3962;42.696;23.354;2023-05-10T11:26:16;10.33;;;7.73;;
7833;SDS011;3962;42.696;23.354;2023-05-10T11:28:44;8.13;;;6.83;;
7833;SDS011;3962;42.696;23.354;2023-05-10T11:31:13;8.93;;;6.63;;
7833;SDS011;3962;42.696;23.354;2023-05-10T11:33:43;10.13;;;7.33;;
7833;SDS011;3962;42.696;23.354;2023-05-10T11:36:11;12.10;;;6.93;;
7833;SDS011;3962;42.696;23.354;2023-05-10T11:38:39;7.27;;;6.20;;
7833;SDS011;3962;42.696;23.354;2023-05-10T11:41:07;9.97;;;7.10;;
7833;SDS011;3962;42.696;23.354;2023-05-10T11:43:36;14.27;;;6.87;;
7833;SDS011;3962;42.696;23.354;2023-05-10T11:46:17;9.33;;;7.23;;
7833;SDS011;3962;42.696;23.354;2023-05-10T11:48:49;10.83;;;8.00;;
7833;SDS011;3962;42.696;23.354;2023-05-10T11:51:22;11.10;;;7.10;;
7833;SDS011;3962;42.696;23.354;2023-05-10T11:54:00;7.47;;;6.40;;
7833;SDS011;3962;42.696;23.354;2023-05-10T11:56:27;10.20;;;5.60;;
7833;SDS011;3962;42.696;23.354;2023-05-10T11:58:54;12.17;;;7.40;;
7833;SDS011;3962;42.696;23.354;2023-05-10T12:01:23;10.40;;;7.63;;
7833;SDS011;3962;42.696;23.354;2023-05-10T12:03:51;10.17;;;7.00;;
7833;SDS011;3962;42.696;23.354;2023-05-10T12:06:19;12.73;;;6.37;;
7833;SDS011;3962;42.696;23.354;2023-05-10T12:08:47;9.73;;;7.23;;
7833;SDS011;3962;42.696;23.354;2023-05-10T12:11:19;9.30;;;7.23;;
7833;SDS011;3962;42.696;23.354;2023-05-10T12:13:47;10.97;;;7.43;;
7833;SDS011;3962;42.696;23.354;2023-05-10T12:16:28;12.47;;;7.43;;
7833;SDS011;3962;42.696;23.354;2023-05-10T12:18:57;11.30;;;7.50;;
7833;SDS011;3962;42.696;23.354;2023-05-10T12:21:25;8.67;;;7.57;;
7833;SDS011;3962;42.696;23.354;2023-05-10T12:23:54;11.70;;;7.13;;
7833;SDS011;3962;42.696;23.354;2023-05-10T12:26:27;8.83;;;7.37;;
7833;SDS011;3962;42.696;23.354;2023-05-10T12:28:54;11.27;;;7.60;;
7833;SDS011;3962;42.696;23.354;2023-05-10T12:31:21;12.60;;;7.80;;
7833;SDS011;3962;42.696;23.354;2023-05-10T12:33:48;11.73;;;7.40;;
7833;SDS011;3962;42.696;23.354;2023-05-10T12:36:15;14.23;;;7.43;;
7833;SDS011;3962;42.696;23.354;2023-05-10T12:38:43;13.00;;;7.37;;
7833;SDS011;3962;42.696;23.354;2023-05-10T12:41:13;11.87;;;8.00;;
7833;SDS011;3962;42.696;23.354;2023-05-10T12:43:42;11.17;;;7.80;;
7833;SDS011;3962;42.696;23.354;2023-05-10T12:46:10;10.17;;;7.73;;
7833;SDS011;3962;42.696;23.354;2023-05-10T12:48:38;9.70;;;7.37;;
7833;SDS011;3962;42.696;23.354;2023-05-10T12:51:05;10.67;;;7.60;;
7833;SDS011;3962;42.696;23.354;2023-05-10T12:53:34;11.77;;;7.47;;
7833;SDS011;3962;42.696;23.354;2023-05-10T12:56:01;11.13;;;7.13;;
7833;SDS011;3962;42.696;23.354;2023-05-10T12:58:28;9.57;;;7.17;;
7833;SDS011;3962;42.696;23.354;2023-05-10T13:00:57;9.33;;;6.90;;
7833;SDS011;3962;42.696;23.354;2023-05-10T13:03:23;9.90;;;7.63;;
7833;SDS011;3962;42.696;23.354;2023-05-10T13:05:50;9.27;;;6.97;;
7833;SDS011;3962;42.696;23.354;2023-05-10T13:08:18;14.80;;;7.80;;
7833;SDS011;3962;42.696;23.354;2023-05-10T13:10:45;10.77;;;7.40;;
7833;SDS011;3962;42.696;23.354;2023-05-10T13:13:12;8.93;;;6.97;;
7833;SDS011;3962;42.696;23.354;2023-05-10T13:15:39;8.87;;;7.47;;
7833;SDS011;3962;42.696;23.354;2023-05-10T13:18:07;9.10;;;6.77;;
7833;SDS011;3962;42.696;23.354;2023-05-10T13:20:34;9.23;;;6.47;;
7833;SDS011;3962;42.696;23.354;2023-05-10T13:23:01;10.63;;;6.40;;
7833;SDS011;3962;42.696;23.354;2023-05-10T13:25:28;13.60;;;7.03;;
7833;SDS011;3962;42.696;23.354;2023-05-10T13:27:55;9.23;;;6.63;;
7833;SDS011;3962;42.696;23.354;2023-05-10T13:30:22;10.23;;;6.10;;
7833;SDS011;3962;42.696;23.354;2023-05-10T13:32:49;10.27;;;7.07;;
7833;SDS011;3962;42.696;23.354;2023-05-10T13:35:17;16.43;;;6.50;;
7833;SDS011;3962;42.696;23.354;2023-05-10T13:37:44;8.67;;;6.83;;
7833;SDS011;3962;42.696;23.354;2023-05-10T13:40:11;10.80;;;6.90;;
7833;SDS011;3962;42.696;23.354;2023-05-10T13:42:41;8.90;;;6.60;;
7833;SDS011;3962;42.696;23.354;2023-05-10T13:45:09;11.10;;;6.73;;
7833;SDS011;3962;42.696;23.354;2023-05-10T13:47:37;11.60;;;6.83;;
7833;SDS011;3962;42.696;23.354;2023-05-10T13:50:04;7.93;;;6.77;;
7833;SDS011;3962;42.696;23.354;2023-05-10T13:52:33;10.33;;;7.80;;
7833;SDS011;3962;42.696;23.354;2023-05-10T13:55:00;12.10;;;7.47;;
7833;SDS011;3962;42.696;23.354;2023-05-10T13:57:29;10.53;;;6.90;;
7833;SDS011;3962;42.696;23.354;2023-05-10T13:59:56;9.37;;;7.37;;
7833;SDS011;3962;42.696;23.354;2023-05-10T14:02:24;8.33;;;6.63;;
7833;SDS011;3962;42.696;23.354;2023-05-10T14:04:52;11.57;;;7.17;;
7833;SDS011;3962;42.696;23.354;2023-05-10T14:07:19;9.33;;;6.70;;
7833;SDS011;3962;42.696;23.354;2023-05-10T14:09:48;14.13;;;7.03;;
7833;SDS011;3962;42.696;23.354;2023-05-10T14:12:14;10.03;;;7.13;;
7833;SDS011;3962;42.696;23.354;2023-05-10T14:14:41;9.93;;;6.87;;
7833;SDS011;3962;42.696;23.354;2023-05-10T14:17:08;13.47;;;7.67;;
7833;SDS011;3962;42.696;23.354;2023-05-10T14:19:35;9.27;;;6.77;;
7833;SDS011;3962;42.696;23.354;2023-05-10T14:22:02;11.67;;;7.00;;
7833;SDS011;3962;42.696;23.354;2023-05-10T14:24:29;13.20;;;7.83;;
7833;SDS011;3962;42.696;23.354;2023-05-10T14:26:57;9.57;;;6.73;;
7833;SDS011;3962;42.696;23.354;2023-05-10T14:29:24;16.73;;;7.53;;
7833;SDS011;3962;42.696;23.354;2023-05-10T14:31:51;12.43;;;7.43;;
7833;SDS011;3962;42.696;23.354;2023-05-10T14:34:17;9.13;;;7.30;;
7833;SDS011;3962;42.696;23.354;2023-05-10T14:36:45;8.17;;;6.80;;
7833;SDS011;3962;42.696;23.354;2023-05-10T14:39:11;9.13;;;6.50;;
7833;SDS011;3962;42.696;23.354;2023-05-10T14:41:40;9.17;;;7.23;;
7833;SDS011;3962;42.696;23.354;2023-05-10T14:44:09;11.93;;;7.07;;
7833;SDS011;3962;42.696;23.354;2023-05-10T14:46:36;10.57;;;6.97;;
7833;SDS011;3962;42.696;23.354;2023-05-10T14:49:03;11.53;;;7.23;;
7833;SDS011;3962;42.696;23.354;2023-05-10T14:51:32;13.33;;;8.23;;
7833;SDS011;3962;42.696;23.354;2023-05-10T14:54:00;11.87;;;8.33;;
7833;SDS011;3962;42.696;23.354;2023-05-10T14:56:27;10.07;;;6.87;;
7833;SDS011;3962;42.696;23.354;2023-05-10T14:58:54;7.47;;;6.70;;
7833;SDS011;3962;42.696;23.354;2023-05-10T15:01:26;12.17;;;7.47;;
7833;SDS011;3962;42.696;23.354;2023-05-10T15:04:07;8.17;;;7.00;;
7833;SDS011;3962;42.696;23.354;2023-05-10T15:06:34;12.93;;;7.57;;
7833;SDS011;3962;42.696;23.354;2023-05-10T15:09:02;13.23;;;8.47;;
7833;SDS011;3962;42.696;23.354;2023-05-10T15:11:29;11.23;;;7.97;;
7833;SDS011;3962;42.696;23.354;2023-05-10T15:13:55;11.73;;;7.20;;
7833;SDS011;3962;42.696;23.354;2023-05-10T15:16:26;10.80;;;7.70;;
7833;SDS011;3962;42.696;23.354;2023-05-10T15:18:53;12.43;;;7.90;;
7833;SDS011;3962;42.696;23.354;2023-05-10T15:21:20;10.63;;;7.40;;
7833;SDS011;3962;42.696;23.354;2023-05-10T15:23:47;10.20;;;7.97;;
7833;SDS011;3962;42.696;23.354;2023-05-10T15:26:15;12.17;;;7.87;;
7833;SDS011;3962;42.696;23.354;2023-05-10T15:28:42;20.10;;;11.43;;
7833;SDS011;3962;42.696;23.354;2023-05-10T15:31:08;12.20;;;7.30;;
7833;SDS011;3962;42.696;23.354;2023-05-10T15:33:37;11.53;;;7.77;;
7833;SDS011;3962;42.696;23.354;2023-05-10T15:36:04;14.70;;;7.90;;
7833;SDS011;3962;42.696;23.354;2023-05-10T15:38:31;11.00;;;7.57;;
7833;SDS011;3962;42.696;23.354;2023-05-10T15:40:58;10.88;;;8.13;;
7833;SDS011;3962;42.696;23.354;2023-05-10T15:43:27;12.47;;;7.30;;
7833;SDS011;3962;42.696;23.354;2023-05-10T15:45:57;11.53;;;7.87;;
7833;SDS011;3962;42.696;23.354;2023-05-10T15:48:24;9.50;;;7.10;;